Latest Weather Observations for Wulungurru (Kintore)

IDD60801

Issued at 1:31 pm CST Saturday 25 March 2017 (issued every 30 minutes, with the page automatically refreshed every 10 minutes)

About weather observations | Map of weather stations | Latest weather observations for NT | Other Formats
Station Details ID: 015664 Name: WALUNGURRU AIRPORT Lat: -23.27 Lon: 129.38 Height: 454.3 m
Data from the previous 72 hours. | See also: Recent months at Wulungurru (Kintore)
Date/Time
CST
Temp
°C
App
Temp
°C
Dew
Point
°C
Rel
Hum
%
Delta-T
°C
Wind Press
QNH
hPa
Press
MSL
hPa
Rain since
9am
mm
Dir  Spd
km/h
Gust
km/h
Spd
kts
Gust
kts
25/01:30pm 39.1 35.3 5.7 13 18.8 N 15 24 8 13 1008.7 - 0.0
25/01:00pm 39.1 35.5 6.7 14 18.5 N 15 24 8 13 1009.3 - 0.0
25/12:30pm 38.0 35.6 8.7 17 17.1 NNE 11 19 6 10 1010.0 - 0.0
25/12:00pm 36.5 34.2 7.5 17 16.6 NNW 9 15 5 8 1010.6 1007.6 0.0
25/11:30am 36.2 33.3 8.1 18 16.2 NNE 13 17 7 9 1011.0 - 0.0
25/11:00am 35.0 32.2 7.1 18 15.7 N 11 17 6 9 1011.4 - 0.0
25/10:30am 33.6 30.9 7.5 20 14.7 NNE 11 19 6 10 1011.5 - 0.0
25/10:00am 32.6 29.7 8.1 22 13.9 NE 13 19 7 10 1011.7 - 0.0
25/09:30am 31.4 27.7 7.8 23 13.2 NE 17 22 9 12 1011.3 - 0.0
25/09:00am 29.6 26.2 7.5 25 12.2 NE 15 20 8 11 1011.1 1008.2 0.0
25/08:30am 28.2 25.5 7.4 27 11.4 ENE 11 15 6 8 1010.8 - 0.0
25/08:00am 25.8 24.3 9.2 35 9.3 NNE 7 9 4 5 1010.8 - 0.0
25/07:30am 23.3 21.2 9.7 42 7.6 NE 11 13 6 7 1010.2 - 0.0
25/07:00am 22.9 21.4 9.3 42 7.5 NNE 7 15 4 8 1009.9 - 0.0
25/06:30am 23.3 21.7 8.6 39 8.0 S 7 11 4 6 1009.3 - 0.0
25/06:00am 22.8 21.2 8.9 41 7.6 SW 7 9 4 5 1009.2 1006.3 0.0
25/05:30am 24.0 22.3 8.4 37 8.5 WNW 7 13 4 7 1009.0 - 0.0
25/05:00am 27.2 25.3 7.6 29 10.7 N 7 13 4 7 1008.8 - 0.0
25/04:30am 27.9 25.4 6.6 26 11.5 SSE 9 13 5 7 1008.6 - 0.0
25/04:00am 28.3 25.9 7.0 26 11.6 SE 9 13 5 7 1008.7 - 0.0
25/03:30am 29.3 26.2 7.2 25 12.1 SSE 13 15 7 8 1008.8 - 0.0
25/03:00am 28.4 27.0 7.1 26 11.6 S 4 7 2 4 1009.1 1006.2 0.0
25/02:30am 30.1 26.2 7.3 24 12.6 SSE 17 20 9 11 1009.3 - 0.0
25/02:00am 29.6 26.3 8.1 26 12.0 SSE 15 20 8 11 1009.3 - 0.0
25/01:30am 28.6 26.1 8.3 28 11.3 SSE 11 13 6 7 1009.3 - 0.0
25/01:00am 26.1 23.6 8.1 32 9.9 SSE 11 13 6 7 1009.6 - 0.0
25/12:30am 26.5 24.3 8.0 31 10.1 SSE 9 13 5 7 1009.7 - 0.0
25/12:00am 28.4 26.5 7.6 27 11.5 SSE 7 9 4 5 1009.9 1006.9 0.0
 
Date/Time
CST
Temp
°C
App
Temp
°C
Dew
Point
°C
Rel
Hum
%
Delta-T
°C
Wind Press
QNH
hPa
Press
MSL
hPa
Rain since
9am
mm
Dir  Spd
km/h
Gust
km/h
Spd
kts
Gust
kts
24/11:30pm 28.4 25.8 7.6 27 11.4 SSE 11 13 6 7 1010.2 - 0.0
24/11:00pm 27.5 25.3 7.9 29 10.8 SSE 9 13 5 7 1010.4 - 0.0
24/10:30pm 28.7 27.8 7.9 27 11.5 ESE 2 6 1 3 1010.4 - 0.0
24/10:00pm 30.1 26.8 7.9 25 12.4 SSE 15 19 8 10 1010.2 - 0.0
24/09:30pm 28.6 27.2 8.8 29 11.1 S 6 9 3 5 1010.0 - 0.0
24/09:00pm 30.8 29.5 9.1 26 12.4 WNW 6 7 3 4 1009.7 1006.7 0.0
24/08:30pm 30.5 30.2 8.8 26 12.3 CALM 0 0 0 0 1009.5 - 0.0
24/08:00pm 32.1 30.2 7.7 22 13.7 S 7 9 4 5 1009.0 - 0.0
24/07:30pm 33.1 32.0 8.5 22 14.0 ENE 4 9 2 5 1008.8 - 0.0
24/07:00pm 34.7 34.0 6.9 18 15.6 CALM 0 0 0 0 1008.7 - 0.0
24/06:30pm 38.1 35.6 4.9 13 18.4 N 7 11 4 6 1008.5 - 0.0
24/06:00pm 38.9 35.7 3.1 11 19.4 N 9 13 5 7 1008.3 1005.3 0.0
24/05:30pm 39.4 36.3 3.5 11 19.6 NNE 9 15 5 8 1008.3 - 0.0
24/05:00pm 39.6 36.9 3.7 11 19.7 NNE 7 11 4 6 1008.3 - 0.0
24/04:30pm 39.7 36.2 3.7 11 19.7 N 11 20 6 11 1008.5 - 0.0
24/04:00pm 39.6 35.4 3.7 11 19.7 NNE 15 20 8 11 1008.8 - 0.0
24/03:30pm 40.3 36.6 4.2 11 20.0 N 13 22 7 12 1009.0 - 0.0
24/03:00pm 39.3 34.6 3.4 11 19.6 NE 17 26 9 14 1009.5 1006.5 0.0
24/02:30pm 39.8 37.4 5.1 12 19.4 NNE 7 20 4 11 1009.8 - 0.0
24/02:00pm 39.1 34.7 4.5 12 19.1 N 17 26 9 14 1010.1 - 0.0
24/01:30pm 38.7 34.1 5.4 13 18.6 N 19 30 10 16 1010.6 - 0.0
24/01:00pm 38.6 34.1 6.3 14 18.3 NNE 19 30 10 16 1011.1 - 0.0
24/12:30pm 38.8 33.6 5.4 13 18.7 NE 22 32 12 17 1011.5 - 0.0
24/12:00pm 38.3 33.2 6.1 14 18.2 N 22 30 12 16 1012.1 1009.1 0.0
24/11:30am 37.9 33.4 6.8 15 17.7 N 20 28 11 15 1012.4 - 0.0
24/11:00am 36.6 31.9 7.6 17 16.6 N 22 30 12 16 1012.6 - 0.0
24/10:30am 36.2 32.7 8.9 19 15.9 NNE 17 26 9 14 1012.7 - 0.0
24/10:00am 34.6 30.4 9.8 22 14.5 NE 22 28 12 15 1012.8 - 0.0
24/09:30am 32.7 28.4 9.5 24 13.4 NE 22 30 12 16 1012.7 - 0.0
24/09:00am 31.4 27.6 9.0 25 12.8 ENE 19 24 10 13 1012.3 1009.3 0.0
24/08:30am 29.6 25.6 9.2 28 11.6 ENE 20 26 11 14 1012.1 - 0.0
24/08:00am 28.9 25.4 8.6 28 11.4 ENE 17 28 9 15 1011.6 - 0.0
24/07:30am 28.3 25.5 8.6 29 11.0 ENE 13 17 7 9 1011.3 - 0.0
24/07:00am 26.7 23.8 8.2 31 10.2 E 13 17 7 9 1011.2 - 0.0
24/06:30am 26.8 23.8 7.8 30 10.4 E 13 17 7 9 1011.1 - 0.0
24/06:00am 26.0 23.5 8.0 32 9.9 ENE 11 13 6 7 1010.9 1008.0 0.0
24/05:30am 27.1 24.8 7.5 29 10.7 ENE 9 11 5 6 1010.8 - 0.0
24/05:00am 28.9 25.9 7.5 26 11.8 ENE 13 17 7 9 1010.7 - 0.0
24/04:30am 28.6 25.6 7.8 27 11.5 E 13 17 7 9 1010.7 - 0.0
24/04:00am 27.7 25.9 8.1 29 10.8 ESE 7 9 4 5 1010.5 - 0.0
24/03:30am 28.2 25.0 8.5 29 11.0 E 15 20 8 11 1010.6 - 0.0
24/03:00am 25.7 23.1 9.5 36 9.1 SE 13 15 7 8 1010.5 1007.5 0.0
24/02:30am 25.2 23.5 9.9 38 8.6 SSE 9 11 5 6 1010.7 - 0.0
24/02:00am 26.2 24.4 9.5 35 9.4 SSE 9 13 5 7 1010.7 - 0.0
24/01:30am 25.9 24.6 10.1 37 9.0 SE 7 11 4 6 1010.8 - 0.0
24/01:00am 26.2 25.5 10.0 36 9.2 ESE 4 7 2 4 1010.9 - 0.0
24/12:30am 26.4 25.3 10.1 36 9.3 ESE 6 6 3 3 1011.2 - 0.0
24/12:00am 26.7 25.7 10.4 36 9.3 ESE 6 6 3 3 1011.3 1008.4 0.0
 
Date/Time
CST
Temp
°C
App
Temp
°C
Dew
Point
°C
Rel
Hum
%
Delta-T
°C
Wind Press
QNH
hPa
Press
MSL
hPa
Rain since
9am
mm
Dir  Spd
km/h
Gust
km/h
Spd
kts
Gust
kts
23/11:30pm 27.6 25.9 9.9 33 10.1 SE 9 9 5 5 1011.4 - 0.0
23/11:00pm 27.6 27.9 10.8 35 9.7 CALM 0 0 0 0 1011.7 - 0.0
23/10:30pm 28.7 27.6 9.9 31 10.8 SE 6 9 3 5 1011.9 - 0.0
23/10:00pm 29.4 27.9 9.0 28 11.5 ENE 7 9 4 5 1011.9 - 0.0
23/09:30pm 30.4 28.7 9.8 28 11.9 SE 9 15 5 8 1011.6 - 0.0
23/09:00pm 30.2 29.2 10.2 29 11.6 ESE 6 7 3 4 1011.3 1008.4 0.0
23/08:30pm 30.9 29.8 10.8 29 11.8 E 7 9 4 5 1011.0 - 0.0
23/08:00pm 31.5 30.4 10.8 28 12.2 E 7 9 4 5 1010.8 - 0.0
23/07:30pm 32.8 31.6 10.2 25 13.2 ENE 7 9 4 5 1010.5 - 0.0
23/07:00pm 36.1 34.1 8.8 19 15.9 NNE 9 11 5 6 1010.3 - 0.0
23/06:30pm 37.9 34.5 7.7 16 17.4 N 15 22 8 12 1010.1 - 0.0
23/06:00pm 38.1 34.8 7.9 16 17.5 N 15 20 8 11 1010.0 1007.0 0.0
23/05:30pm 37.7 34.5 8.5 17 17.0 N 15 20 8 11 1009.9 - 0.0
23/05:00pm 38.9 35.7 8.5 16 17.8 N 15 22 8 12 1009.8 - 0.0
23/04:30pm 38.1 34.2 7.0 15 17.8 NNE 17 22 9 12 1009.9 - 0.0
23/04:00pm 39.0 34.7 7.7 15 18.1 N 20 30 11 16 1009.8 - 0.0
23/03:30pm 39.0 36.0 7.7 15 18.1 ENE 13 32 7 17 1010.0 - 0.0
23/03:00pm 39.7 34.7 8.2 15 18.5 N 24 33 13 18 1010.1 1007.1 0.0
23/02:30pm 39.4 34.4 8.0 15 18.3 N 24 33 13 18 1010.5 - 0.0
23/02:00pm 38.6 33.7 8.3 16 17.7 N 24 35 13 19 1010.9 - 0.0
23/01:30pm 38.8 35.5 9.4 17 17.4 N 17 26 9 14 1011.3 - 0.0
23/01:00pm 38.2 34.7 8.9 17 17.2 NNE 17 32 9 17 1011.9 - 0.0
23/12:30pm 37.6 32.7 8.4 17 17.0 N 24 33 13 18 1012.3 - 0.0
23/12:00pm 38.2 34.2 8.9 17 17.2 N 20 32 11 17 1012.7 1009.7 0.0
23/11:30am 36.6 32.3 9.2 19 16.1 N 22 32 12 17 1013.3 - 0.0
23/11:00am 36.3 33.1 11.2 22 15.1 NNE 19 30 10 16 1013.6 - 0.0
23/10:30am 35.9 33.9 14.0 27 13.7 NNE 17 26 9 14 1013.8 - 0.0
23/10:00am 35.0 32.8 13.2 27 13.5 N 17 22 9 12 1014.0 - 0.0
23/09:30am 34.3 32.1 13.2 28 13.0 NNE 17 22 9 12 1013.9 - 0.0
23/09:00am 33.3 31.2 12.3 28 12.7 N 15 22 8 12 1013.6 1010.7 0.0
23/08:30am 30.9 27.9 10.8 29 11.8 NE 17 20 9 11 1013.5 - 0.0
23/08:00am 30.0 28.2 11.0 31 11.1 ENE 11 15 6 8 1013.0 - 0.0
23/07:30am 28.4 26.5 10.6 33 10.3 ENE 11 13 6 7 1012.8 - 0.0
23/07:00am 29.1 26.8 10.3 31 10.8 N 13 17 7 9 1012.7 - 0.0
23/06:30am 28.8 27.4 9.5 30 11.0 NNE 7 11 4 6 1012.4 - 0.0
23/06:00am 30.0 27.7 9.0 27 11.9 ENE 11 15 6 8 1012.0 1009.0 0.0
23/05:30am 29.9 26.9 9.4 28 11.7 ENE 15 20 8 11 1011.9 - 0.0
23/05:00am 30.1 26.3 9.1 27 11.9 ENE 19 30 10 16 1011.5 - 0.0
23/04:30am 30.4 27.3 8.7 26 12.3 E 15 20 8 11 1011.3 - 0.0
23/04:00am 30.4 27.0 9.3 27 12.1 E 17 20 9 11 1011.0 - 0.0
23/03:30am 30.4 28.4 8.7 26 12.3 ENE 9 11 5 6 1010.8 - 0.0
23/03:00am 29.9 27.6 8.9 27 11.9 ENE 11 11 6 6 1010.9 1008.0 0.0
23/02:30am 30.6 28.7 8.9 26 12.3 NE 9 13 5 7 1011.1 - 0.0
23/02:00am 30.8 28.9 9.1 26 12.4 ENE 9 11 5 6 1011.2 - 0.0
23/01:30am 31.1 28.7 8.8 25 12.7 ENE 11 13 6 7 1011.3 - 0.0
23/01:00am 30.7 28.6 9.6 27 12.1 ENE 11 13 6 7 1011.4 - 0.0
23/12:30am 30.9 28.8 9.7 27 12.2 ENE 11 13 6 7 1011.6 - 0.0
23/12:00am 29.6 27.9 11.2 32 10.8 E 11 13 6 7 1011.9 1008.9 0.0
 
Date/Time
CST
Temp
°C
App
Temp
°C
Dew
Point
°C
Rel
Hum
%
Delta-T
°C
Wind Press
QNH
hPa
Press
MSL
hPa
Rain since
9am
mm
Dir  Spd
km/h
Gust
km/h
Spd
kts
Gust
kts
22/11:30pm 30.6 28.3 10.5 29 11.7 NNE 13 15 7 8 1011.9 - 0.0
22/11:00pm 31.7 29.1 9.3 25 12.9 ENE 13 15 7 8 1011.6 - 0.0
22/10:30pm 30.9 28.7 9.2 26 12.4 E 11 13 6 7 1011.5 - 0.0
22/10:00pm 31.8 29.0 8.7 24 13.2 E 13 15 7 8 1011.2 - 0.0
22/09:30pm 31.9 29.2 8.8 24 13.2 E 13 15 7 8 1011.0 - 0.0
22/09:00pm 32.3 29.3 7.9 22 13.8 E 13 15 7 8 1010.8 1007.9 0.0
22/08:30pm 32.2 29.5 9.1 24 13.3 E 13 13 7 7 1010.7 - 0.0
22/08:00pm 32.7 30.5 9.5 24 13.4 E 11 13 6 7 1010.4 - 0.0
22/07:30pm 34.1 32.6 10.7 24 13.9 ENE 9 11 5 6 1010.0 - 0.0
22/07:00pm 35.3 33.9 9.7 21 15.0 ENE 7 9 4 5 1009.9 - 0.0
22/06:30pm 37.0 34.6 8.8 18 16.5 NE 11 15 6 8 1009.8 - 0.0
22/06:00pm 37.5 34.8 7.4 16 17.3 ENE 11 15 6 8 1009.6 1006.6 0.0
22/05:30pm 37.8 34.2 6.7 15 17.7 ENE 15 19 8 10 1009.5 - 0.0
22/05:00pm 38.2 33.9 7.0 15 17.8 ENE 19 24 10 13 1009.5 - 0.0
22/04:30pm 39.7 36.6 7.2 14 18.7 NNE 13 24 7 13 1009.2 - 0.0
22/04:00pm 39.8 36.7 7.3 14 18.8 NE 13 20 7 11 1009.3 - 0.0
22/03:30pm 39.3 37.0 8.9 16 17.9 NE 11 22 6 12 1009.3 - 0.0
22/03:00pm 40.1 35.6 8.5 15 18.6 E 22 30 12 16 1009.6 1006.6 0.0
22/02:30pm 39.0 35.8 8.6 16 17.8 NE 15 24 8 13 1010.0 - 0.0
22/02:00pm 38.9 35.1 7.6 15 18.1 NE 17 24 9 13 1010.2 - 0.0

Other Formats:

Comma delimited format used in spreadsheet applications
http://www.bom.gov.au/fwo/IDD60801/IDD60801.94321.axf

JavaScript Object Notation format (JSON) in row-major order
http://www.bom.gov.au/fwo/IDD60801/IDD60801.94321.json